EGPUEIDL

Guest
Details From EGPU - Tiree
To EIDL - Donegal
Flight Number -
Tags generated
Created
Modified
Stats Distance 101 nm / 186 km
Max Altitude 100 ft / 30 m
Waypoints 3
Social Downloads 0
Likes 0
Share VATSIM

Download

Looking for another format? Having issues loading an existing format? Contact us
Advertisement - Login to hide

Notes

Basic altitude profile: - Ascent Rate: 2500ft/min - Ascent Speed: 250kts - Cruise Altitude: 35000ft - Cruise Speed: 420kts - Descent Rate: 1500ft/min - Descent Speed: 250kts Options: - Use NATs: yes - Use PACOTS: yes - Use low airways: yes - Use high airways: no

Route

EGPU TIR EIDL

ID Type Via Altitude Latitude Longitude Leg Dist Tot Dist Heading (true) Name
O EGPU APT - 0 ft / 0 m 56.50130˚ -6.87273˚ - 0 nm - Tiree
TIR VOR - 100 ft / 30 m 56.49317˚ -6.87556˚ 0 nm 0 nm 191° / 191° TIREE VOR-DME
O EIDL APT - 0 ft / 0 m 55.04420˚ -8.34104˚ 100 nm 100 nm 210° / 209° Donegal

Altitude Profile

Advertisement - Login to hide

EGPU

Details ICAO EGPU (TRE)
Name Tiree
Region United Kingdom
Timezone Europe/London (UTC+0.0)
Stats Elevation 38 ft / 12 m (AMSL)
Location 56.501296° -6.872731°
Runways 3
Magnetic Variation 3.898° W

METAR

EGPU 121020Z 20015KT 9000 VCSH FEW010 BKN027 05/04 Q0999

Decode

TAF

Not found

Departure Runways

ID Width Length Bearing (true) Bearing (mag) Surface Threshold Offset Overrun Length
05 98 ft / 30 m 4,848 ft / 1,478 m 47.04° 50.94° Asphalt 0 ft / 0 m 653 ft / 199 m
11 62 ft / 19 m 2,654 ft / 809 m 107.10° 111.00° Asphalt 0 ft / 0 m 0 ft / 0 m
17 59 ft / 18 m 2,595 ft / 791 m 167.16° 171.06° Concrete 0 ft / 0 m 0 ft / 0 m
23 98 ft / 30 m 4,848 ft / 1,478 m 227.05° 230.95° Asphalt 397 ft / 121 m 0 ft / 0 m
29 62 ft / 19 m 2,654 ft / 809 m 287.11° 291.01° Asphalt 0 ft / 0 m 0 ft / 0 m
35 59 ft / 18 m 2,595 ft / 791 m 347.16° 351.06° Concrete 0 ft / 0 m 0 ft / 0 m

EIDL

Details ICAO EIDL (CFN)
Name Donegal
Region Ireland
Timezone Unknown (UTC+0.0)
Stats Elevation 29 ft / 9 m (AMSL)
Location 55.044196° -8.341036°
Runways 1
Magnetic Variation 4.209° W

METAR

EIDL 121030Z 18014KT 9999 -RA SCT027 05/03 Q1001

Decode

TAF

Not found

Destination Runways

ID Width Length Bearing (true) Bearing (mag) Surface Threshold Offset Overrun Length
03 98 ft / 30 m 4,906 ft / 1,495 m 20.15° 24.36° Asphalt 656 ft / 200 m 0 ft / 0 m
21 98 ft / 30 m 4,906 ft / 1,495 m 200.16° 204.37° Asphalt 656 ft / 200 m 0 ft / 0 m

Approach Navaids

Runway Type Ident Frequency Range Bearing (true) Bearing (mag) Slope Elevation
21 Localiser IFN 110.30 MHz 18 nm / 33 km 200.16° 204.37° - 29 ft / 9 m (AMSL)
21 DME IFN 110.30 MHz 18 nm / 33 km - - - 33 ft / 10 m (AMSL)